createdAt,value
2018-12-11T08:51:09.057Z,1010.39
2018-12-11T08:52:09.058Z,1010.35
2018-12-11T08:53:09.079Z,1010.33
2018-12-11T08:54:09.082Z,1010.44
2018-12-11T08:55:09.510Z,1010.34
2018-12-11T08:56:09.679Z,1010.4
2018-12-11T08:57:09.688Z,1010.39
2018-12-11T08:58:09.705Z,1010.41
2018-12-11T08:59:10.143Z,1010.42
2018-12-11T09:00:10.673Z,1010.41
2018-12-11T09:01:10.634Z,1010.4
2018-12-11T09:02:10.995Z,1010.44
2018-12-11T09:03:11.014Z,1010.41
2018-12-11T09:04:11.176Z,1010.4
2018-12-11T09:05:11.621Z,1010.44
2018-12-11T09:06:11.650Z,1010.45
2018-12-11T09:07:12.064Z,1010.5
2018-12-11T09:08:12.076Z,1010.45
2018-12-11T09:09:12.535Z,1010.47
2018-12-11T09:10:12.576Z,1010.47
2018-12-11T09:11:12.568Z,1010.51
2018-12-11T09:12:13.003Z,1010.45
2018-12-11T09:13:13.027Z,1010.55
2018-12-11T09:14:13.487Z,1010.51
2018-12-11T09:15:13.641Z,1010.61
2018-12-11T09:16:13.656Z,1010.62
2018-12-11T09:17:14.089Z,1010.62
2018-12-11T09:18:14.107Z,1010.63
2018-12-11T09:19:14.122Z,1010.64
2018-12-11T09:20:14.641Z,1010.66
2018-12-11T09:21:14.857Z,1010.7
2018-12-11T09:22:14.883Z,1010.64
2018-12-11T09:23:14.879Z,1010.66
2018-12-11T09:24:14.919Z,1010.7
2018-12-11T09:25:15.139Z,1010.63
2018-12-11T09:26:15.203Z,1010.74
2018-12-11T09:27:15.189Z,1010.71
2018-12-11T09:28:15.223Z,1010.72
2018-12-11T09:29:15.254Z,1010.69
2018-12-11T09:30:15.670Z,1010.75
2018-12-11T09:31:15.694Z,1010.74
2018-12-11T09:32:15.721Z,1010.7
2018-12-11T09:33:15.738Z,1010.72
2018-12-11T09:34:15.771Z,1010.72
2018-12-11T09:35:15.783Z,1010.71
2018-12-11T09:36:16.195Z,1010.7
2018-12-11T09:37:16.444Z,1010.66
2018-12-11T09:38:16.649Z,1010.74
2018-12-11T09:39:16.659Z,1010.79
2018-12-11T09:40:16.691Z,1010.7
2018-12-11T09:41:16.707Z,1010.75
2018-12-11T09:42:16.913Z,1010.75
2018-12-11T09:43:16.941Z,1010.78
2018-12-11T09:44:17.382Z,1010.74
2018-12-11T09:45:17.582Z,1010.76
2018-12-11T09:46:17.598Z,1010.77
2018-12-11T09:47:17.615Z,1010.71
2018-12-11T09:48:17.649Z,1010.79
2018-12-11T09:49:17.665Z,1010.71
2018-12-11T09:50:17.843Z,1010.72
2018-12-11T09:51:18.002Z,1010.73
2018-12-11T09:52:17.889Z,1010.75
2018-12-11T09:53:18.348Z,1010.74
2018-12-11T09:54:18.365Z,1010.79
2018-12-11T09:55:18.397Z,1010.78
2018-12-11T09:56:18.452Z,1010.8
2018-12-11T09:57:18.443Z,1010.77
2018-12-11T09:58:18.464Z,1010.84
2018-12-11T09:59:23.347Z,1010.82
2018-12-11T10:01:18.538Z,1010.85
2018-12-11T10:02:18.648Z,1010.84
2018-12-11T10:03:18.779Z,1010.8
2018-12-11T10:04:18.804Z,1010.8
2018-12-11T10:05:18.838Z,1010.85
2018-12-11T10:06:18.866Z,1010.87
2018-12-11T10:07:19.276Z,1010.87
2018-12-11T10:08:19.302Z,1010.87
2018-12-11T10:09:19.709Z,1010.83
2018-12-11T10:10:19.733Z,1010.84
2018-12-11T10:11:20.187Z,1010.87
2018-12-11T10:12:20.171Z,1010.93
2018-12-11T10:13:20.202Z,1010.95
2018-12-11T10:14:20.312Z,1010.92
2018-12-11T10:15:20.698Z,1010.89
2018-12-11T10:16:20.482Z,1010.96
2018-12-11T10:17:20.921Z,1010.99
2018-12-11T10:18:21.280Z,1011
2018-12-11T10:19:21.423Z,1010.96
2018-12-11T10:20:21.878Z,1010.99
2018-12-11T10:21:21.889Z,1010.93
2018-12-11T10:22:21.912Z,1010.91
2018-12-11T10:23:22.046Z,1010.95
2018-12-11T10:24:22.073Z,1010.97
2018-12-11T10:25:22.094Z,1010.93
2018-12-11T10:26:22.497Z,1011
2018-12-11T10:27:22.520Z,1011.04
2018-12-11T10:28:22.538Z,1011.01
2018-12-11T10:29:22.750Z,1011.03
2018-12-11T10:30:22.884Z,1011.02
2018-12-11T10:31:22.908Z,1011.02
2018-12-11T10:32:22.934Z,1011.02
2018-12-11T10:33:23.064Z,1011.01
2018-12-11T10:34:23.094Z,1011
2018-12-11T10:35:23.490Z,1011.03
2018-12-11T10:36:23.878Z,1010.98
2018-12-11T10:37:23.901Z,1010.99
2018-12-11T10:38:23.930Z,1011.05
2018-12-11T10:39:23.952Z,1011.07
2018-12-11T10:40:24.317Z,1011.03
2018-12-11T10:41:24.720Z,1011.06
2018-12-11T10:42:24.749Z,1011.09
2018-12-11T10:43:24.765Z,1011.05
2018-12-11T10:44:24.790Z,1011.12
2018-12-11T10:45:25.169Z,1011.13
2018-12-11T10:46:25.251Z,1011.1
2018-12-11T10:47:25.278Z,1011.07
2018-12-11T10:48:25.245Z,1011.09
2018-12-11T10:49:25.272Z,1011.11
2018-12-11T10:50:25.295Z,1011.17
2018-12-11T10:51:25.364Z,1011.13
2018-12-11T10:52:25.348Z,1011.15
2018-12-11T10:53:25.370Z,1011.19
2018-12-11T10:54:25.526Z,1011.25
2018-12-11T10:55:25.890Z,1011.18
2018-12-11T10:56:25.911Z,1011.17
2018-12-11T10:57:25.937Z,1011.19
2018-12-11T10:58:26.373Z,1011.24
2018-12-11T10:59:26.395Z,1011.2
2018-12-11T11:00:27.228Z,1011.21
2018-12-11T11:01:26.917Z,1011.26
2018-12-11T11:02:27.303Z,1011.29
2018-12-11T11:03:27.328Z,1011.33
2018-12-11T11:04:27.480Z,1011.3
2018-12-11T11:05:27.485Z,1011.34
2018-12-11T11:06:27.856Z,1011.28
2018-12-11T11:07:28.254Z,1011.35
2018-12-11T11:08:28.617Z,1011.34
2018-12-11T11:09:28.647Z,1011.43
2018-12-11T11:10:28.780Z,1011.34
2018-12-11T11:11:28.804Z,1011.33
2018-12-11T11:12:29.259Z,1011.4
2018-12-11T11:13:29.678Z,1011.36
2018-12-11T11:14:30.111Z,1011.4
2018-12-11T11:15:30.260Z,1011.32
2018-12-11T11:16:30.531Z,1011.41
2018-12-11T11:17:30.556Z,1011.41
2018-12-11T11:18:30.976Z,1011.45
2018-12-11T11:19:31.031Z,1011.46
2018-12-11T11:20:31.029Z,1011.46
2018-12-11T11:21:31.053Z,1011.48
2018-12-11T11:22:31.102Z,1011.41
2018-12-11T11:23:31.099Z,1011.46
2018-12-11T11:24:31.128Z,1011.48
2018-12-11T11:25:31.273Z,1011.49
2018-12-11T11:26:31.298Z,1011.51
2018-12-11T11:27:31.694Z,1011.55
2018-12-11T11:28:31.730Z,1011.47
2018-12-11T11:29:31.752Z,1011.56
2018-12-11T11:30:32.112Z,1011.62
2018-12-11T11:31:32.217Z,1011.58
2018-12-11T11:32:32.585Z,1011.58
2018-12-11T11:33:32.974Z,1011.69
2018-12-11T11:34:33.388Z,1011.61
2018-12-11T11:35:33.413Z,1011.68
2018-12-11T11:36:33.438Z,1011.71
2018-12-11T11:37:33.814Z,1011.66
2018-12-11T11:38:33.842Z,1011.68
2018-12-11T11:39:33.868Z,1011.68
2018-12-11T11:40:34.252Z,1011.62
2018-12-11T11:41:34.604Z,1011.64
2018-12-11T11:42:34.642Z,1011.65
2018-12-11T11:43:35.050Z,1011.63
2018-12-11T11:44:35.205Z,1011.64
2018-12-11T11:45:35.362Z,1011.63
2018-12-11T11:46:35.390Z,1011.64
2018-12-11T11:47:35.406Z,1011.72
2018-12-11T11:48:35.800Z,1011.75
2018-12-11T11:49:36.193Z,1011.79
2018-12-11T11:50:36.223Z,1011.81
2018-12-11T11:51:36.249Z,1011.91
2018-12-11T11:52:36.396Z,1011.91
2018-12-11T11:53:36.791Z,1011.87
2018-12-11T11:54:37.157Z,1011.86
2018-12-11T11:55:37.181Z,1011.89
2018-12-11T11:56:37.204Z,1011.85
2018-12-11T11:57:37.229Z,1011.91
2018-12-11T11:58:37.257Z,1011.89
2018-12-11T11:59:37.649Z,1011.88
2018-12-11T12:00:38.029Z,1011.9
2018-12-11T12:01:38.153Z,1011.92
2018-12-11T12:02:38.673Z,1011.95
2018-12-11T12:03:38.688Z,1011.98
2018-12-11T12:04:38.713Z,1012.01
2018-12-11T12:05:38.744Z,1011.97
2018-12-11T12:06:38.770Z,1011.95
2018-12-11T12:07:39.187Z,1011.99
2018-12-11T12:08:39.207Z,1011.97
2018-12-11T12:09:39.609Z,1012.03
2018-12-11T12:10:40.034Z,1011.99
2018-12-11T12:11:40.424Z,1011.97
2018-12-11T12:12:40.556Z,1012.05
2018-12-11T12:13:40.996Z,1012.03
2018-12-11T12:14:41.419Z,1011.99
2018-12-11T12:15:41.438Z,1012
2018-12-11T12:16:41.586Z,1011.98
2018-12-11T12:17:41.609Z,1012
2018-12-11T12:18:41.636Z,1012.02
2018-12-11T12:19:41.801Z,1012.04
2018-12-11T12:20:41.841Z,1012
2018-12-11T12:21:41.852Z,1012.07
2018-12-11T12:22:41.888Z,1012.03
2018-12-11T12:23:42.285Z,1012.04
2018-12-11T12:24:42.309Z,1012.09
2018-12-11T12:25:42.436Z,1012.09
2018-12-11T12:26:42.481Z,1012.13
2018-12-11T12:27:42.874Z,1012.12
2018-12-11T12:28:42.899Z,1012.13
2018-12-11T12:29:43.044Z,1012.14
2018-12-11T12:30:43.067Z,1012.14
2018-12-11T12:31:43.095Z,1012.1
2018-12-11T12:32:43.115Z,1012.19
2018-12-11T12:33:43.230Z,1012.08
2018-12-11T12:34:43.254Z,1012.12
2018-12-11T12:35:43.746Z,1012.15
2018-12-11T12:36:43.906Z,1012.13
2018-12-11T12:37:43.927Z,1012.11
2018-12-11T12:38:43.976Z,1012.14
2018-12-11T12:39:44.122Z,1012.12
2018-12-11T12:40:44.496Z,1012.11
2018-12-11T12:41:44.169Z,1012.14
2018-12-11T12:42:44.200Z,1012.14
2018-12-11T12:43:44.365Z,1012.08
2018-12-11T12:44:44.411Z,1012.08
2018-12-11T12:45:44.620Z,1012.12
2018-12-11T12:46:44.609Z,1012.2
2018-12-11T12:47:44.639Z,1012.08
2018-12-11T12:48:44.801Z,1012.13
2018-12-11T12:49:51.053Z,1012.14
2018-12-11T12:50:51.086Z,1012.22
2018-12-11T12:51:51.088Z,1012.17
2018-12-11T12:52:51.125Z,1012.2
2018-12-11T12:53:51.136Z,1012.21
2018-12-11T12:54:51.619Z,1012.24
2018-12-11T12:55:51.618Z,1012.27
2018-12-11T12:56:51.640Z,1012.23
2018-12-11T12:57:52.057Z,1012.2
2018-12-11T12:58:52.463Z,1012.28
2018-12-11T12:59:52.498Z,1012.28
2018-12-11T13:00:52.967Z,1012.32
2018-12-11T13:01:52.994Z,1012.31
2018-12-11T13:02:53.023Z,1012.34
2018-12-11T13:03:53.317Z,1012.27
2018-12-11T13:04:53.047Z,1012.27
2018-12-11T13:05:53.074Z,1012.34
2018-12-11T13:06:53.126Z,1012.31
2018-12-11T13:07:53.126Z,1012.35
2018-12-11T13:08:53.358Z,1012.34
2018-12-11T13:09:53.176Z,1012.33
2018-12-11T13:10:53.213Z,1012.34
2018-12-11T13:11:53.226Z,1012.4
2018-12-11T13:12:53.277Z,1012.4
2018-12-11T13:13:53.505Z,1012.41
2018-12-11T13:14:53.509Z,1012.42
2018-12-11T13:15:53.311Z,1012.38
2018-12-11T13:16:53.421Z,1012.46
2018-12-11T13:17:53.380Z,1012.51
2018-12-11T13:18:53.480Z,1012.49
2018-12-11T13:19:53.570Z,1012.5
2018-12-11T13:20:53.678Z,1012.52
2018-12-11T13:21:53.499Z,1012.52
2018-12-11T13:22:53.525Z,1012.53
2018-12-11T13:23:53.537Z,1012.49
2018-12-11T13:24:53.598Z,1012.51
2018-12-11T13:25:53.587Z,1012.54
2018-12-11T13:26:53.805Z,1012.52
2018-12-11T13:27:53.650Z,1012.54
2018-12-11T13:28:53.647Z,1012.52
2018-12-11T13:29:53.679Z,1012.53
2018-12-11T13:30:53.929Z,1012.53
2018-12-11T13:31:53.752Z,1012.65
2018-12-11T13:32:53.748Z,1012.62
2018-12-11T13:33:53.790Z,1012.58
2018-12-11T13:34:53.883Z,1012.6
2018-12-11T13:35:53.815Z,1012.62
2018-12-11T13:36:53.878Z,1012.61
2018-12-11T13:37:53.865Z,1012.6
2018-12-11T13:38:54.160Z,1012.66
2018-12-11T13:39:53.914Z,1012.63
2018-12-11T13:40:53.936Z,1012.69
2018-12-11T13:41:53.965Z,1012.63
2018-12-11T13:42:54.121Z,1012.64
2018-12-11T13:43:54.008Z,1012.74
2018-12-11T13:44:54.068Z,1012.76
2018-12-11T13:45:54.048Z,1012.73
2018-12-11T13:46:54.093Z,1012.69
2018-12-11T13:47:54.133Z,1012.7
2018-12-11T13:48:54.148Z,1012.77
2018-12-11T13:49:54.183Z,1012.71
2018-12-11T13:50:54.182Z,1012.81
2018-12-11T13:51:54.280Z,1012.77
2018-12-11T13:52:54.358Z,1012.76
2018-12-11T13:53:54.308Z,1012.73
2018-12-11T13:54:55.549Z,1012.86
2018-12-11T13:55:54.337Z,1012.82
2018-12-11T13:56:54.460Z,1012.83
2018-12-11T13:57:54.412Z,1012.87
2018-12-11T13:58:54.458Z,1012.83
2018-12-11T13:59:54.499Z,1012.89
2018-12-11T14:00:54.447Z,1012.83
2018-12-11T14:01:54.540Z,1012.86
2018-12-11T14:02:54.506Z,1012.84
2018-12-11T14:03:54.531Z,1012.88
2018-12-11T14:04:54.556Z,1012.83
2018-12-11T14:05:54.789Z,1012.85
2018-12-11T14:06:54.801Z,1012.85
2018-12-11T14:07:54.826Z,1012.88
2018-12-11T14:08:55.278Z,1012.85
2018-12-11T14:09:55.697Z,1012.82
2018-12-11T14:10:55.720Z,1012.93
2018-12-11T14:11:55.734Z,1012.87
2018-12-11T14:12:56.202Z,1012.9
2018-12-11T14:13:56.713Z,1012.9
2018-12-11T14:14:56.874Z,1012.91
2018-12-11T14:15:57.117Z,1012.86
2018-12-11T14:16:57.293Z,1012.88
2018-12-11T14:17:57.732Z,1012.91
2018-12-11T14:18:57.749Z,1012.9
2018-12-11T14:19:58.211Z,1012.96
2018-12-11T14:20:58.210Z,1012.86
2018-12-11T14:21:58.237Z,1012.9
2018-12-11T14:22:58.263Z,1012.86
2018-12-11T14:23:58.297Z,1012.84
2018-12-11T14:24:58.318Z,1012.93
2018-12-11T14:25:58.570Z,1012.92
2018-12-11T14:26:59.700Z,1012.91
2018-12-11T14:27:59.710Z,1012.95
2018-12-11T14:28:59.738Z,1012.93
2018-12-11T14:29:59.755Z,1012.88
2018-12-11T14:30:59.786Z,1012.92
2018-12-11T14:31:59.807Z,1012.93
2018-12-11T14:32:59.834Z,1012.91
2018-12-11T14:34:00.265Z,1012.96
2018-12-11T14:35:00.303Z,1012.97
2018-12-11T14:36:00.323Z,1012.99
2018-12-11T14:37:00.336Z,1012.98
2018-12-11T14:38:00.363Z,1012.95
2018-12-11T14:39:00.391Z,1013.01
2018-12-11T14:40:00.427Z,1013
2018-12-11T14:41:00.892Z,1013.02
2018-12-11T14:42:01.083Z,1013.04
2018-12-11T14:43:01.109Z,1013
2018-12-11T14:44:01.145Z,1013.03
2018-12-11T14:45:01.609Z,1013.05
2018-12-11T14:46:01.631Z,1013.06
2018-12-11T14:47:01.853Z,1013.04
2018-12-11T14:48:01.871Z,1013.03
2018-12-11T14:49:01.911Z,1013.04
2018-12-11T14:50:02.335Z,1013.03
2018-12-11T14:51:02.349Z,1013.07
2018-12-11T14:52:02.378Z,1013.04
2018-12-11T14:53:02.436Z,1013.04
2018-12-11T14:54:02.428Z,1013.02
2018-12-11T14:55:02.610Z,1013.05
2018-12-11T14:56:02.628Z,1013.11
2018-12-11T14:57:02.651Z,1013.08
2018-12-11T14:58:02.680Z,1013.05
2018-12-11T14:59:02.708Z,1013.13
2018-12-11T15:01:03.125Z,1013.11
2018-12-11T15:02:02.797Z,1013.08
2018-12-11T15:03:02.783Z,1013.06
2018-12-11T15:04:03.045Z,1013.08
2018-12-11T15:05:02.851Z,1013.11
2018-12-11T15:06:03.086Z,1013.13
2018-12-11T15:07:03.323Z,1013.16
2018-12-11T15:08:03.341Z,1013.11
2018-12-11T15:09:03.342Z,1013.09
2018-12-11T15:10:03.141Z,1013.18
2018-12-11T15:11:03.207Z,1013.21
2018-12-11T15:12:03.288Z,1013.11
2018-12-11T15:13:03.287Z,1013.17
2018-12-11T15:14:03.281Z,1013.14
2018-12-11T15:15:03.287Z,1013.24
2018-12-11T15:16:03.438Z,1013.2
2018-12-11T15:17:03.611Z,1013.17
2018-12-11T15:18:03.376Z,1013.2
2018-12-11T15:19:03.436Z,1013.21
2018-12-11T15:20:03.424Z,1013.25
2018-12-11T15:21:03.432Z,1013.23
2018-12-11T15:22:03.459Z,1013.25
2018-12-11T15:23:03.848Z,1013.29
2018-12-11T15:24:03.879Z,1013.29
2018-12-11T15:25:03.938Z,1013.25
2018-12-11T15:26:05.414Z,1013.26
2018-12-11T15:27:03.989Z,1013.33
2018-12-11T15:28:04.063Z,1013.32
2018-12-11T15:29:04.054Z,1013.32
2018-12-11T15:30:04.117Z,1013.34
2018-12-11T15:31:04.415Z,1013.3
2018-12-11T15:32:04.314Z,1013.27
2018-12-11T15:33:04.681Z,1013.37
2018-12-11T15:34:04.169Z,1013.26
2018-12-11T15:35:04.163Z,1013.32
2018-12-11T15:36:04.238Z,1013.31
2018-12-11T15:37:04.526Z,1013.35
2018-12-11T15:38:04.255Z,1013.4
2018-12-11T15:39:04.566Z,1013.36
2018-12-11T15:40:04.331Z,1013.38
2018-12-11T15:41:04.707Z,1013.39
2018-12-11T15:42:04.374Z,1013.38
2018-12-11T15:43:04.608Z,1013.42
2018-12-11T15:44:04.653Z,1013.37
2018-12-11T15:45:04.499Z,1013.37
2018-12-11T15:46:04.520Z,1013.38
2018-12-11T15:47:04.691Z,1013.4
2018-12-11T15:48:04.639Z,1013.41
2018-12-11T15:49:04.550Z,1013.46
2018-12-11T15:50:05.022Z,1013.46
2018-12-11T15:51:04.635Z,1013.46
2018-12-11T15:52:04.605Z,1013.42
2018-12-11T15:53:04.623Z,1013.42
2018-12-11T15:54:04.863Z,1013.41
2018-12-11T15:55:04.652Z,1013.42
2018-12-11T15:56:04.693Z,1013.42
2018-12-11T15:57:04.693Z,1013.48
2018-12-11T15:58:04.944Z,1013.44
2018-12-11T15:59:05.309Z,1013.47
2018-12-11T16:01:04.844Z,1013.49
2018-12-11T16:02:06.068Z,1013.51
2018-12-11T16:03:05.078Z,1013.5
2018-12-11T16:04:05.139Z,1013.47
2018-12-11T16:05:05.150Z,1013.54
2018-12-11T16:06:07.962Z,1013.57
2018-12-11T16:07:05.350Z,1013.58
2018-12-11T16:08:05.338Z,1013.58
2018-12-11T16:09:05.124Z,1013.57
2018-12-11T16:10:05.181Z,1013.56
2018-12-11T16:11:05.456Z,1013.59
2018-12-11T16:12:05.479Z,1013.6
2018-12-11T16:13:05.270Z,1013.59
2018-12-11T16:14:05.285Z,1013.55
2018-12-11T16:15:05.352Z,1013.63
2018-12-11T16:16:05.338Z,1013.62
2018-12-11T16:17:05.326Z,1013.67
2018-12-11T16:18:05.393Z,1013.64
2018-12-11T16:19:05.386Z,1013.63
2018-12-11T16:20:05.369Z,1013.69
2018-12-11T16:21:05.662Z,1013.65
2018-12-11T16:22:05.995Z,1013.76
2018-12-11T16:23:05.478Z,1013.73
2018-12-11T16:24:05.727Z,1013.72
2018-12-11T16:25:05.740Z,1013.66
2018-12-11T16:26:05.603Z,1013.76
2018-12-11T16:27:05.840Z,1013.67
2018-12-11T16:28:06.214Z,1013.77
2018-12-11T16:29:05.677Z,1013.74
2018-12-11T16:30:05.662Z,1013.83
2018-12-11T16:31:05.945Z,1013.72
2018-12-11T16:32:05.739Z,1013.74
2018-12-11T16:33:05.756Z,1013.76
2018-12-11T16:34:05.748Z,1013.76
2018-12-11T16:35:05.790Z,1013.75
2018-12-11T16:36:05.846Z,1013.8
2018-12-11T16:37:05.801Z,1013.83
2018-12-11T16:38:05.822Z,1013.8
2018-12-11T16:39:05.856Z,1013.77
2018-12-11T16:40:05.958Z,1013.78
2018-12-11T16:41:05.914Z,1013.84
2018-12-11T16:42:05.944Z,1013.83
2018-12-11T16:43:05.958Z,1013.91
2018-12-11T16:44:05.972Z,1013.85
2018-12-11T16:45:06.030Z,1013.86
2018-12-11T16:46:06.043Z,1013.88
2018-12-11T16:47:06.070Z,1013.91
2018-12-11T16:48:06.116Z,1013.95
2018-12-11T16:49:06.141Z,1013.92
2018-12-11T16:50:06.197Z,1013.93
2018-12-11T16:51:06.223Z,1013.99
2018-12-11T16:52:06.253Z,1014.05
2018-12-11T16:53:06.202Z,1013.96
2018-12-11T16:54:06.281Z,1014.01
2018-12-11T16:55:06.305Z,1014.01
2018-12-11T16:56:06.271Z,1014.05
2018-12-11T16:57:06.336Z,1014
2018-12-11T16:58:06.736Z,1014.02
2018-12-11T16:59:07.773Z,1013.96
2018-12-11T17:01:06.393Z,1013.99
2018-12-11T17:02:06.415Z,1014.03
2018-12-11T17:03:06.443Z,1013.96
2018-12-11T17:04:06.827Z,1014
2018-12-11T17:05:07.216Z,1014.04
2018-12-11T17:06:07.623Z,1014.1
2018-12-11T17:07:07.737Z,1014.08
2018-12-11T17:08:08.089Z,1014.06
2018-12-11T17:09:08.469Z,1014.11
2018-12-11T17:10:08.749Z,1014.15
2018-12-11T17:11:08.553Z,1014.16
2018-12-11T17:12:08.576Z,1014.17
2018-12-11T17:13:08.573Z,1014.17
2018-12-11T17:14:09.056Z,1014.21
2018-12-11T17:15:09.332Z,1014.2
2018-12-11T17:16:09.273Z,1014.23
2018-12-11T17:17:10.031Z,1014.26
2018-12-11T17:18:09.827Z,1014.22
2018-12-11T17:19:09.849Z,1014.23
2018-12-11T17:20:10.490Z,1014.27
2018-12-11T17:21:10.413Z,1014.23
2018-12-11T17:22:10.432Z,1014.29
2018-12-11T17:23:10.608Z,1014.29
2018-12-11T17:24:10.697Z,1014.28
2018-12-11T17:25:10.657Z,1014.35
2018-12-11T17:26:10.695Z,1014.33
2018-12-11T17:27:10.708Z,1014.39
2018-12-11T17:28:10.756Z,1014.33
2018-12-11T17:29:10.783Z,1014.36
2018-12-11T17:30:10.819Z,1014.36
2018-12-11T17:31:10.835Z,1014.38
2018-12-11T17:32:10.918Z,1014.39
2018-12-11T17:33:10.855Z,1014.41
2018-12-11T17:34:10.915Z,1014.4
2018-12-11T17:35:10.941Z,1014.37
2018-12-11T17:36:11.214Z,1014.41
2018-12-11T17:37:11.247Z,1014.37
2018-12-11T17:38:11.227Z,1014.4
2018-12-11T17:39:11.042Z,1014.42
2018-12-11T17:40:11.105Z,1014.38
2018-12-11T17:41:11.068Z,1014.44
2018-12-11T17:42:11.080Z,1014.44
2018-12-11T17:43:11.101Z,1014.47
2018-12-11T17:44:11.155Z,1014.41
2018-12-11T17:45:11.150Z,1014.49
2018-12-11T17:46:11.203Z,1014.47
2018-12-11T17:47:11.201Z,1014.45
2018-12-11T17:48:11.911Z,1014.5
2018-12-11T17:49:11.891Z,1014.48
2018-12-11T17:50:11.909Z,1014.5
2018-12-11T17:51:11.931Z,1014.51
2018-12-11T17:52:12.037Z,1014.52
2018-12-11T17:53:12.059Z,1014.52
2018-12-11T17:54:12.085Z,1014.52
2018-12-11T17:55:12.480Z,1014.59
2018-12-11T17:56:12.505Z,1014.55
2018-12-11T17:57:12.624Z,1014.6
2018-12-11T17:58:13.031Z,1014.58
2018-12-11T17:59:13.420Z,1014.58
2018-12-11T18:00:13.998Z,1014.58
2018-12-11T18:01:13.935Z,1014.56
2018-12-11T18:02:14.373Z,1014.58
2018-12-11T18:03:14.395Z,1014.66
2018-12-11T18:04:14.430Z,1014.61
2018-12-11T18:05:14.598Z,1014.63
2018-12-11T18:06:14.623Z,1014.67
2018-12-11T18:07:15.132Z,1014.66
2018-12-11T18:08:15.154Z,1014.64
2018-12-11T18:09:15.186Z,1014.65
2018-12-11T18:10:15.202Z,1014.68
2018-12-11T18:11:15.230Z,1014.63
2018-12-11T18:12:15.254Z,1014.64
2018-12-11T18:13:15.277Z,1014.64
2018-12-11T18:14:15.307Z,1014.64
2018-12-11T18:15:15.333Z,1014.64
2018-12-11T18:16:15.356Z,1014.64
2018-12-11T18:17:15.771Z,1014.7
2018-12-11T18:18:15.922Z,1014.6
2018-12-11T18:19:15.950Z,1014.66
2018-12-11T18:20:15.971Z,1014.67
2018-12-11T18:21:15.998Z,1014.71
2018-12-11T18:22:16.019Z,1014.69
2018-12-11T18:23:16.453Z,1014.69
2018-12-11T18:24:16.471Z,1014.69
2018-12-11T18:25:16.504Z,1014.73
2018-12-11T18:26:16.938Z,1014.77
2018-12-11T18:27:16.956Z,1014.77
2018-12-11T18:28:16.982Z,1014.72
2018-12-11T18:29:17.003Z,1014.79
2018-12-11T18:30:17.040Z,1014.74
2018-12-11T18:31:17.061Z,1014.77
2018-12-11T18:32:17.083Z,1014.77
2018-12-11T18:33:17.128Z,1014.84
2018-12-11T18:34:17.138Z,1014.82
2018-12-11T18:35:17.561Z,1014.86
2018-12-11T18:36:17.733Z,1014.82
2018-12-11T18:37:18.157Z,1014.86
2018-12-11T18:38:18.179Z,1014.86
2018-12-11T18:39:18.205Z,1014.93
2018-12-11T18:40:18.226Z,1014.87
2018-12-11T18:41:18.464Z,1014.88
2018-12-11T18:42:18.453Z,1014.87
2018-12-11T18:43:18.466Z,1014.97
2018-12-11T18:44:18.485Z,1014.94
2018-12-11T18:45:18.509Z,1014.94
2018-12-11T18:46:18.539Z,1014.9
2018-12-11T18:47:18.965Z,1014.93
2018-12-11T18:48:18.993Z,1014.97
2018-12-11T18:49:19.017Z,1014.99
2018-12-11T18:50:22.105Z,1014.99
2018-12-11T18:51:22.134Z,1014.99
2018-12-11T18:52:22.154Z,1015.01
2018-12-11T18:53:22.175Z,1015.05
2018-12-11T18:54:22.205Z,1015.05
2018-12-11T18:55:22.650Z,1015.06
2018-12-11T18:56:22.672Z,1015.04
2018-12-11T18:57:23.189Z,1015.06
2018-12-11T18:58:24.706Z,1014.99
2018-12-11T18:59:23.238Z,1015.07
2018-12-11T19:00:23.727Z,1015.03
2018-12-11T19:01:23.759Z,1015.08
2018-12-11T19:02:23.779Z,1015.1
2018-12-11T19:03:23.992Z,1015.08
2018-12-11T19:04:24.452Z,1015.08
2018-12-11T19:05:24.470Z,1015.09
2018-12-11T19:06:24.496Z,1015.14
2018-12-11T19:07:24.695Z,1015.11
2018-12-11T19:08:24.716Z,1015.19
2018-12-11T19:09:24.961Z,1015.11
2018-12-11T19:10:25.438Z,1015.15
2018-12-11T19:11:25.944Z,1015.14
2018-12-11T19:12:25.972Z,1015.18
2018-12-11T19:13:25.995Z,1015.17
2018-12-11T19:14:26.014Z,1015.22
2018-12-11T19:15:26.045Z,1015.17
2018-12-11T19:16:26.069Z,1015.25
2018-12-11T19:17:26.549Z,1015.28
2018-12-11T19:18:26.574Z,1015.29
2018-12-11T19:19:26.599Z,1015.31
2018-12-11T19:20:26.640Z,1015.34
2018-12-11T19:21:26.643Z,1015.31
2018-12-11T19:22:26.670Z,1015.28
2018-12-11T19:23:27.151Z,1015.29
2018-12-11T19:24:27.170Z,1015.29
2018-12-11T19:25:27.196Z,1015.31
2018-12-11T19:26:27.419Z,1015.35
2018-12-11T19:27:27.922Z,1015.32
2018-12-11T19:28:28.390Z,1015.38
2018-12-11T19:29:28.417Z,1015.44
2018-12-11T19:30:28.444Z,1015.38
2018-12-11T19:31:28.499Z,1015.36
2018-12-11T19:32:28.554Z,1015.39
2018-12-11T19:33:28.520Z,1015.45
2018-12-11T19:34:28.544Z,1015.45
2018-12-11T19:35:32.910Z,1015.42
2018-12-11T19:36:28.591Z,1015.45
2018-12-11T19:37:28.617Z,1015.45
2018-12-11T19:38:28.643Z,1015.45
2018-12-11T19:39:28.668Z,1015.53
2018-12-11T19:40:29.140Z,1015.53
2018-12-11T19:41:29.164Z,1015.54
2018-12-11T19:42:29.188Z,1015.48
2018-12-11T19:43:29.212Z,1015.46
2018-12-11T19:44:29.242Z,1015.56
2018-12-11T19:45:29.259Z,1015.48
2018-12-11T19:46:29.749Z,1015.44
2018-12-11T19:47:29.773Z,1015.46
2018-12-11T19:48:29.793Z,1015.48
2018-12-11T19:49:29.820Z,1015.5
2018-12-11T19:50:29.898Z,1015.48
2018-12-11T19:51:29.873Z,1015.5
2018-12-11T19:52:29.896Z,1015.46
2018-12-11T19:53:29.917Z,1015.47
2018-12-11T19:54:29.941Z,1015.51
2018-12-11T19:55:29.968Z,1015.52
2018-12-11T19:56:29.988Z,1015.49
2018-12-11T19:57:30.014Z,1015.51
2018-12-11T19:58:30.042Z,1015.55
2018-12-11T19:59:30.065Z,1015.59
2018-12-11T20:00:31.187Z,1015.59
2018-12-11T20:01:31.171Z,1015.6
